createdAt,value
2023-05-21T00:00:21.097Z,50.60
2023-05-21T00:02:49.571Z,51.19
2023-05-21T00:05:18.517Z,50.90
2023-05-21T00:07:48.333Z,50.77
2023-05-21T00:10:16.918Z,50.76
2023-05-21T00:12:46.386Z,50.85
2023-05-21T00:15:14.609Z,50.43
2023-05-21T00:17:43.542Z,50.19
2023-05-21T00:20:13.036Z,51.18
2023-05-21T00:22:42.355Z,51.09
2023-05-21T00:25:13.277Z,51.02
2023-05-21T00:27:41.451Z,52.23
2023-05-21T00:30:10.139Z,51.31
2023-05-21T00:32:38.731Z,51.29
2023-05-21T00:35:08.125Z,51.40
2023-05-21T00:37:36.232Z,50.98
2023-05-21T00:40:09.205Z,51.19
2023-05-21T00:42:40.636Z,51.15
2023-05-21T00:45:10.103Z,51.46
2023-05-21T00:47:39.219Z,51.78
2023-05-21T00:50:08.763Z,51.52
2023-05-21T00:52:42.267Z,51.46
2023-05-21T00:55:11.805Z,51.75
2023-05-21T00:57:42.607Z,51.79
2023-05-21T01:00:12.165Z,52.18
2023-05-21T01:02:40.709Z,52.35
2023-05-21T01:05:09.620Z,51.94
2023-05-21T01:07:41.518Z,52.25
2023-05-21T01:10:12.463Z,52.82
2023-05-21T01:12:45.679Z,52.46
2023-05-21T01:15:15.215Z,53.99
2023-05-21T01:17:46.186Z,52.18
2023-05-21T01:20:18.182Z,52.24
2023-05-21T01:22:53.079Z,52.82
2023-05-21T01:25:21.698Z,54.67
2023-05-21T01:27:49.976Z,52.62
2023-05-21T01:30:20.070Z,52.33
2023-05-21T01:32:53.650Z,53.08
2023-05-21T01:35:26.223Z,53.43
2023-05-21T01:38:02.500Z,53.44
2023-05-21T01:40:35.844Z,53.46
2023-05-21T01:43:06.125Z,53.71
2023-05-21T01:45:37.552Z,53.25
2023-05-21T01:48:08.237Z,53.05
2023-05-21T01:50:36.998Z,53.30
2023-05-21T01:53:06.838Z,53.26
2023-05-21T01:55:39.545Z,53.99
2023-05-21T01:58:08.725Z,53.82
2023-05-21T02:00:37.583Z,53.49
2023-05-21T02:03:06.079Z,53.27
2023-05-21T02:05:34.464Z,53.28
2023-05-21T02:08:02.933Z,53.45
2023-05-21T02:10:32.792Z,53.62
2023-05-21T02:13:01.090Z,53.87
2023-05-21T02:15:30.430Z,53.79
2023-05-21T02:17:58.927Z,54.13
2023-05-21T02:20:27.795Z,53.94
2023-05-21T02:22:55.922Z,53.64
2023-05-21T02:25:24.210Z,54.07
2023-05-21T02:27:56.903Z,53.78
2023-05-21T02:30:25.264Z,54.14
2023-05-21T02:32:57.499Z,53.93
2023-05-21T02:35:26.072Z,53.95
2023-05-21T02:37:58.984Z,54.08
2023-05-21T02:40:27.316Z,53.72
2023-05-21T02:42:56.998Z,54.37
2023-05-21T02:45:25.748Z,55.73
2023-05-21T02:47:53.916Z,55.79
2023-05-21T02:50:23.352Z,55.32
2023-05-21T02:52:54.652Z,54.72
2023-05-21T02:55:23.516Z,54.80
2023-05-21T02:57:51.957Z,55.85
2023-05-21T03:00:21.836Z,55.75
2023-05-21T03:02:50.843Z,55.49
2023-05-21T03:05:19.079Z,55.25
2023-05-21T03:07:47.224Z,56.42
2023-05-21T03:10:16.716Z,55.65
2023-05-21T03:12:44.992Z,55.29
2023-05-21T03:15:14.999Z,54.89
2023-05-21T03:17:44.931Z,54.97
2023-05-21T03:20:16.550Z,55.23
2023-05-21T03:22:45.570Z,55.20
2023-05-21T03:25:13.849Z,55.10
2023-05-21T03:27:42.304Z,55.35
2023-05-21T03:30:13.254Z,55.87
2023-05-21T03:32:46.064Z,56.80
2023-05-21T03:35:14.641Z,56.80
2023-05-21T03:37:42.863Z,56.23
2023-05-21T03:40:12.008Z,56.30
2023-05-21T03:42:40.446Z,55.69
2023-05-21T03:45:09.547Z,56.05
2023-05-21T03:47:38.164Z,56.00
2023-05-21T03:50:10.565Z,55.77
2023-05-21T03:52:38.782Z,56.59
2023-05-21T03:55:07.911Z,55.94
2023-05-21T03:57:36.078Z,56.21
2023-05-21T04:00:05.040Z,56.27
2023-05-21T04:02:44.097Z,55.97
2023-05-21T04:05:14.714Z,56.01
2023-05-21T04:07:42.983Z,55.96
2023-05-21T04:10:11.510Z,56.44
2023-05-21T04:12:39.930Z,56.33
2023-05-21T04:15:09.277Z,57.22
2023-05-21T04:17:37.525Z,57.37
2023-05-21T04:20:07.167Z,57.53
2023-05-21T04:22:36.822Z,58.03
2023-05-21T04:25:05.414Z,58.01
2023-05-21T04:27:35.542Z,58.13
2023-05-21T04:30:04.272Z,58.54
2023-05-21T04:32:35.005Z,59.58
2023-05-21T04:35:04.338Z,58.67
2023-05-21T04:37:35.156Z,58.12
2023-05-21T04:40:06.632Z,58.46
2023-05-21T04:42:36.424Z,58.92
2023-05-21T04:45:05.840Z,58.17
2023-05-21T04:47:35.506Z,58.03
2023-05-21T04:50:05.200Z,57.75
2023-05-21T04:52:34.818Z,58.32
2023-05-21T04:55:03.125Z,58.23
2023-05-21T04:57:32.724Z,58.17
2023-05-21T05:00:02.025Z,58.40
2023-05-21T05:02:33.281Z,58.14
2023-05-21T05:05:01.671Z,58.39
2023-05-21T05:07:29.687Z,59.07
2023-05-21T05:09:57.974Z,59.16
2023-05-21T05:12:26.366Z,58.88
2023-05-21T05:14:55.931Z,57.97
2023-05-21T05:17:24.676Z,57.89
2023-05-21T05:19:53.236Z,57.63
2023-05-21T05:22:21.546Z,57.62
2023-05-21T05:24:49.719Z,57.18
2023-05-21T05:27:18.909Z,57.27
2023-05-21T05:29:46.995Z,56.64
2023-05-21T05:32:17.334Z,56.23
2023-05-21T05:34:49.019Z,56.06
2023-05-21T05:37:17.350Z,56.28
2023-05-21T05:39:45.736Z,55.80
2023-05-21T05:42:14.916Z,55.65
2023-05-21T05:44:43.011Z,55.88
2023-05-21T05:47:11.394Z,55.98
2023-05-21T05:49:40.872Z,56.28
2023-05-21T05:52:09.002Z,56.81
2023-05-21T05:54:37.388Z,55.84
2023-05-21T05:57:06.768Z,57.18
2023-05-21T05:59:36.189Z,56.80
2023-05-21T06:02:05.118Z,57.44
2023-05-21T06:04:33.468Z,56.51
2023-05-21T06:07:03.091Z,56.81
2023-05-21T06:09:31.166Z,57.52
2023-05-21T06:11:59.574Z,56.90
2023-05-21T06:14:27.737Z,58.08
2023-05-21T06:16:55.847Z,56.35
2023-05-21T06:19:24.816Z,57.54
2023-05-21T06:21:53.187Z,56.75
2023-05-21T06:24:22.584Z,55.79
2023-05-21T06:26:51.434Z,55.47
2023-05-21T06:29:19.784Z,54.86
2023-05-21T06:31:48.649Z,54.69
2023-05-21T06:34:17.545Z,54.59
2023-05-21T06:36:45.887Z,54.48
2023-05-21T06:39:14.057Z,53.90
2023-05-21T06:41:44.692Z,53.94
2023-05-21T06:44:21.087Z,53.82
2023-05-21T06:46:51.721Z,53.76
2023-05-21T06:49:20.914Z,53.25
2023-05-21T06:51:52.524Z,53.45
2023-05-21T06:54:21.670Z,52.87
2023-05-21T06:56:52.902Z,52.87
2023-05-21T06:59:21.688Z,52.92
2023-05-21T07:01:49.855Z,52.73
2023-05-21T07:04:18.112Z,52.45
2023-05-21T07:06:46.873Z,52.27
2023-05-21T07:09:15.595Z,52.11
2023-05-21T07:11:44.419Z,51.87
2023-05-21T07:14:15.607Z,51.75
2023-05-21T07:16:44.073Z,51.54
2023-05-21T07:19:12.788Z,51.44
2023-05-21T07:21:41.539Z,51.67
2023-05-21T07:24:09.812Z,51.54
2023-05-21T07:26:39.299Z,51.04
2023-05-21T07:29:07.952Z,50.79
2023-05-21T07:31:37.693Z,50.84
2023-05-21T07:34:06.872Z,50.47
2023-05-21T07:36:42.832Z,50.18
2023-05-21T07:39:13.128Z,50.12
2023-05-21T07:41:42.417Z,49.90
2023-05-21T07:44:13.019Z,49.70
2023-05-21T07:46:43.019Z,49.64
2023-05-21T07:49:16.761Z,49.46
2023-05-21T07:51:45.957Z,49.61
2023-05-21T07:54:14.764Z,49.52
2023-05-21T07:56:43.052Z,49.08
2023-05-21T07:59:14.882Z,48.94
2023-05-21T08:01:47.202Z,48.79
2023-05-21T08:04:15.768Z,48.26
2023-05-21T08:06:44.397Z,48.41
2023-05-21T08:09:12.682Z,48.37
2023-05-21T08:11:42.287Z,48.22
2023-05-21T08:14:10.344Z,48.18
2023-05-21T08:16:39.496Z,48.16
2023-05-21T08:19:09.526Z,48.00
2023-05-21T08:21:37.739Z,47.90
2023-05-21T08:24:06.697Z,47.92
2023-05-21T08:26:35.736Z,47.57
2023-05-21T08:29:04.210Z,47.13
2023-05-21T08:31:32.530Z,47.05
2023-05-21T08:34:01.228Z,47.06
2023-05-21T08:36:34.813Z,46.98
2023-05-21T08:39:03.518Z,46.69
2023-05-21T08:41:37.831Z,46.75
2023-05-21T08:44:12.405Z,46.09
2023-05-21T08:46:42.854Z,46.31
2023-05-21T08:49:14.036Z,46.14
2023-05-21T08:51:44.524Z,45.87
2023-05-21T08:54:14.183Z,45.73
2023-05-21T08:56:47.229Z,45.53
2023-05-21T08:59:19.391Z,45.63
2023-05-21T09:01:51.060Z,45.61
2023-05-21T09:04:21.617Z,45.29
2023-05-21T09:06:52.749Z,45.48
2023-05-21T09:09:29.308Z,44.26
2023-05-21T09:11:57.444Z,44.08
2023-05-21T09:14:27.448Z,44.99
2023-05-21T09:16:56.369Z,44.71
2023-05-21T09:19:25.363Z,44.59
2023-05-21T09:21:55.500Z,44.40
2023-05-21T09:24:24.213Z,43.79
2023-05-21T09:26:52.836Z,44.17
2023-05-21T09:29:21.829Z,44.19
2023-05-21T09:31:51.186Z,44.22
2023-05-21T09:34:19.420Z,43.71
2023-05-21T09:36:50.128Z,43.45
2023-05-21T09:39:30.613Z,42.59
2023-05-21T09:42:00.949Z,41.34
2023-05-21T09:44:29.297Z,43.36
2023-05-21T09:46:59.536Z,43.35
2023-05-21T09:49:28.548Z,43.19
2023-05-21T09:51:57.166Z,43.41
2023-05-21T09:54:25.952Z,43.00
2023-05-21T09:56:55.685Z,42.63
2023-05-21T09:59:24.174Z,42.35
2023-05-21T10:01:53.307Z,42.32
2023-05-21T10:04:22.889Z,42.47
2023-05-21T10:06:52.127Z,42.52
2023-05-21T10:09:21.702Z,42.11
2023-05-21T10:11:53.231Z,42.09
2023-05-21T10:14:26.390Z,42.14
2023-05-21T10:16:55.808Z,40.38
2023-05-21T10:19:28.711Z,41.48
2023-05-21T10:21:57.818Z,40.87
2023-05-21T10:24:26.816Z,41.94
2023-05-21T10:26:55.483Z,42.26
2023-05-21T10:29:26.755Z,41.78
2023-05-21T10:31:54.984Z,41.42
2023-05-21T10:34:24.948Z,41.48
2023-05-21T10:36:55.387Z,40.07
2023-05-21T10:39:25.405Z,40.56
2023-05-21T10:42:02.767Z,40.60
2023-05-21T10:44:44.622Z,38.79
2023-05-21T10:47:43.400Z,38.66
2023-05-21T10:50:38.670Z,37.99
2023-05-21T10:53:15.446Z,37.96
2023-05-21T10:55:58.510Z,37.88
2023-05-21T10:58:43.893Z,37.88
2023-05-21T11:01:15.202Z,37.30
2023-05-21T11:03:44.022Z,38.97
2023-05-21T11:06:12.554Z,38.89
2023-05-21T11:08:49.107Z,39.49
2023-05-21T11:11:46.233Z,35.44
2023-05-21T11:14:32.823Z,36.46
2023-05-21T11:17:03.666Z,35.80
2023-05-21T11:19:40.120Z,38.42
2023-05-21T11:22:10.715Z,36.38
2023-05-21T11:24:40.603Z,38.71
2023-05-21T11:27:09.913Z,38.91
2023-05-21T11:29:46.020Z,38.51
2023-05-21T11:32:17.583Z,36.45
2023-05-21T11:34:49.587Z,37.87
2023-05-21T11:37:27.849Z,38.22
2023-05-21T11:39:56.690Z,35.95
2023-05-21T11:42:33.670Z,37.56
2023-05-21T11:45:04.027Z,36.28
2023-05-21T11:47:35.031Z,37.77
2023-05-21T11:50:05.298Z,37.91
2023-05-21T11:52:33.811Z,38.39
2023-05-21T11:55:01.978Z,37.72
2023-05-21T11:57:31.948Z,36.94
2023-05-21T12:00:09.131Z,36.34
2023-05-21T12:02:46.091Z,38.03
2023-05-21T12:05:17.532Z,35.53
2023-05-21T12:07:50.114Z,36.29
2023-05-21T12:10:23.237Z,36.45
2023-05-21T12:12:56.508Z,36.31
2023-05-21T12:15:28.452Z,37.38
2023-05-21T12:17:58.683Z,37.08
2023-05-21T12:20:28.896Z,36.29
2023-05-21T12:22:59.094Z,37.16
2023-05-21T12:25:28.499Z,36.62
2023-05-21T12:27:58.828Z,36.61
2023-05-21T12:30:28.065Z,36.53
2023-05-21T12:33:02.177Z,36.84
2023-05-21T12:35:31.688Z,35.83
2023-05-21T12:38:02.056Z,36.72
2023-05-21T12:40:37.276Z,36.38
2023-05-21T12:43:06.311Z,34.31
2023-05-21T12:45:36.653Z,36.59
2023-05-21T12:48:06.536Z,36.49
2023-05-21T12:50:35.749Z,36.24
2023-05-21T12:53:04.248Z,36.67
2023-05-21T12:55:33.006Z,36.51
2023-05-21T12:58:04.295Z,36.49
2023-05-21T13:00:33.559Z,36.25
2023-05-21T13:03:02.197Z,36.06
2023-05-21T13:05:31.993Z,36.78
2023-05-21T13:08:03.815Z,36.39
2023-05-21T13:10:32.320Z,36.68
2023-05-21T13:13:00.456Z,36.60
2023-05-21T13:15:29.165Z,36.42
2023-05-21T13:17:59.058Z,36.70
2023-05-21T13:20:28.036Z,36.61
2023-05-21T13:22:58.003Z,36.67
2023-05-21T13:25:29.315Z,35.76
2023-05-21T13:27:58.980Z,36.12
2023-05-21T13:30:27.503Z,36.69
2023-05-21T13:32:56.166Z,36.68
2023-05-21T13:35:24.416Z,36.53
2023-05-21T13:37:52.744Z,36.78
2023-05-21T13:40:23.037Z,36.29
2023-05-21T13:42:51.631Z,35.95
2023-05-21T13:45:21.485Z,36.02
2023-05-21T13:47:49.824Z,35.91
2023-05-21T13:50:18.057Z,35.99
2023-05-21T13:52:49.196Z,35.87
2023-05-21T13:55:22.627Z,35.92
2023-05-21T13:57:51.017Z,35.74
2023-05-21T14:00:19.056Z,35.63
2023-05-21T14:02:47.616Z,35.71
2023-05-21T14:05:15.774Z,34.94
2023-05-21T14:07:43.965Z,35.53
2023-05-21T14:10:13.358Z,35.53
2023-05-21T14:12:42.942Z,35.36
2023-05-21T14:15:12.015Z,34.07
2023-05-21T14:17:42.458Z,35.28
2023-05-21T14:20:11.279Z,35.65
2023-05-21T14:22:39.788Z,35.74
2023-05-21T14:25:08.608Z,35.51
2023-05-21T14:27:38.421Z,35.40
2023-05-21T14:30:09.477Z,35.20
2023-05-21T14:32:37.840Z,34.38
2023-05-21T14:35:06.753Z,35.41
2023-05-21T14:37:35.012Z,34.69
2023-05-21T14:40:05.573Z,34.83
2023-05-21T14:42:33.810Z,34.90
2023-05-21T14:45:17.442Z,34.30
2023-05-21T14:47:48.887Z,34.63
2023-05-21T14:50:19.810Z,33.94
2023-05-21T14:52:48.231Z,33.38
2023-05-21T14:55:25.383Z,33.96
2023-05-21T14:57:54.173Z,33.11
2023-05-21T15:00:22.695Z,33.84
2023-05-21T15:02:57.335Z,33.56
2023-05-21T15:05:28.194Z,31.97
2023-05-21T15:07:56.887Z,32.60
2023-05-21T15:10:25.278Z,33.77
2023-05-21T15:12:54.073Z,33.48
2023-05-21T15:15:32.886Z,33.32
2023-05-21T15:18:03.865Z,33.46
2023-05-21T15:20:41.365Z,33.29
2023-05-21T15:23:16.964Z,32.23
2023-05-21T15:25:46.317Z,33.63
2023-05-21T15:28:14.844Z,33.71
2023-05-21T15:30:42.993Z,32.98
2023-05-21T15:33:12.501Z,34.00
2023-05-21T15:35:41.248Z,33.91
2023-05-21T15:38:09.704Z,33.93
2023-05-21T15:40:41.301Z,34.48
2023-05-21T15:43:09.955Z,33.41
2023-05-21T15:45:39.019Z,34.35
2023-05-21T15:48:09.979Z,34.24
2023-05-21T15:50:40.079Z,34.46
2023-05-21T15:53:24.345Z,34.23
2023-05-21T15:55:55.473Z,34.03
2023-05-21T15:58:24.176Z,34.54
2023-05-21T16:00:52.741Z,34.56
2023-05-21T16:03:21.285Z,34.60
2023-05-21T16:05:50.951Z,34.73
2023-05-21T16:08:19.247Z,34.88
2023-05-21T16:10:47.751Z,35.02
2023-05-21T16:13:15.992Z,35.04
2023-05-21T16:15:44.098Z,35.06
2023-05-21T16:18:12.472Z,35.26
2023-05-21T16:20:42.107Z,35.32
2023-05-21T16:23:12.917Z,35.29
2023-05-21T16:25:42.190Z,35.37
2023-05-21T16:28:12.264Z,35.53
2023-05-21T16:30:40.810Z,35.49
2023-05-21T16:33:09.361Z,35.60
2023-05-21T16:35:37.698Z,35.64
2023-05-21T16:38:06.113Z,35.75
2023-05-21T16:40:35.977Z,35.89
2023-05-21T16:43:04.155Z,35.99
2023-05-21T16:45:39.733Z,36.04
2023-05-21T16:48:08.815Z,36.27
2023-05-21T16:50:36.968Z,36.26
2023-05-21T16:53:55.029Z,36.52
2023-05-21T16:56:27.212Z,36.91
2023-05-21T16:58:55.458Z,36.92
2023-05-21T17:01:24.170Z,37.01
2023-05-21T17:03:52.655Z,37.14
2023-05-21T17:09:47.992Z,37.96
2023-05-21T17:12:25.981Z,37.73
2023-05-21T17:14:55.491Z,38.37
2023-05-21T17:17:23.956Z,37.81
2023-05-21T17:19:52.230Z,38.03
2023-05-21T17:22:20.668Z,37.90
2023-05-21T17:24:49.333Z,37.98
2023-05-21T17:27:21.469Z,37.98
2023-05-21T17:29:51.073Z,38.37
2023-05-21T17:32:20.900Z,38.38
2023-05-21T17:34:49.470Z,38.26
2023-05-21T17:37:17.965Z,38.35
2023-05-21T17:39:46.237Z,38.43
2023-05-21T17:42:14.429Z,38.29
2023-05-21T17:44:44.063Z,38.37
2023-05-21T17:47:12.209Z,38.33
2023-05-21T17:49:40.312Z,38.11
2023-05-21T17:52:08.693Z,38.40
2023-05-21T17:54:36.820Z,38.14
2023-05-21T17:57:05.175Z,38.12
2023-05-21T17:59:33.627Z,37.96
2023-05-21T18:02:03.064Z,38.01
2023-05-21T18:04:31.955Z,38.07
2023-05-21T18:07:02.079Z,37.88
2023-05-21T18:09:30.848Z,37.62
2023-05-21T18:12:00.072Z,37.69
2023-05-21T18:14:29.351Z,37.75
2023-05-21T18:16:59.320Z,37.77
2023-05-21T18:19:33.161Z,37.86
2023-05-21T18:22:08.640Z,37.87
2023-05-21T18:24:40.030Z,37.97
2023-05-21T18:27:08.265Z,38.03
2023-05-21T18:29:37.787Z,38.07
2023-05-21T18:32:06.856Z,38.22
2023-05-21T18:34:36.398Z,38.33
2023-05-21T18:37:05.066Z,38.74
2023-05-21T18:39:33.428Z,38.73
2023-05-21T18:42:12.772Z,38.95
2023-05-21T18:44:41.815Z,39.00
2023-05-21T18:47:09.921Z,39.16
2023-05-21T18:49:39.483Z,39.21
2023-05-21T18:52:08.155Z,39.54
2023-05-21T18:54:36.557Z,39.66
2023-05-21T18:57:05.040Z,39.79
2023-05-21T18:59:33.524Z,39.92
2023-05-21T19:02:01.757Z,40.10
2023-05-21T19:04:29.983Z,40.29
2023-05-21T19:07:00.126Z,40.49
2023-05-21T19:09:28.182Z,40.99
2023-05-21T19:11:56.549Z,40.84
2023-05-21T19:14:24.773Z,41.16
2023-05-21T19:16:55.280Z,41.07
2023-05-21T19:19:23.629Z,41.26
2023-05-21T19:21:52.891Z,41.29
2023-05-21T19:24:22.333Z,41.19
2023-05-21T19:26:50.602Z,41.75
2023-05-21T19:29:19.024Z,41.38
2023-05-21T19:31:47.256Z,41.65
2023-05-21T19:34:15.760Z,41.88
2023-05-21T19:36:53.066Z,41.84
2023-05-21T19:39:23.462Z,42.12
2023-05-21T19:41:52.876Z,42.06
2023-05-21T19:44:21.048Z,42.63
2023-05-21T19:46:49.941Z,42.45
2023-05-21T19:49:19.967Z,43.12
2023-05-21T19:51:49.496Z,42.64
2023-05-21T19:54:18.516Z,42.98
2023-05-21T19:56:48.216Z,42.98
2023-05-21T19:59:16.461Z,43.34
2023-05-21T20:01:45.093Z,43.39
2023-05-21T20:04:14.128Z,43.20
2023-05-21T20:06:42.398Z,43.16
2023-05-21T20:09:13.277Z,43.25
2023-05-21T20:11:42.233Z,43.47
2023-05-21T20:14:11.681Z,43.59
2023-05-21T20:16:39.782Z,43.77
2023-05-21T20:19:11.201Z,43.91
2023-05-21T20:21:39.499Z,43.88
2023-05-21T20:24:08.807Z,44.09
2023-05-21T20:26:39.992Z,44.19
2023-05-21T20:29:08.542Z,44.21
2023-05-21T20:31:37.914Z,44.49
2023-05-21T20:34:07.678Z,44.45
2023-05-21T20:36:36.560Z,44.71
2023-05-21T20:39:06.258Z,44.61
2023-05-21T20:41:36.234Z,44.88
2023-05-21T20:44:06.815Z,44.78
2023-05-21T20:46:38.286Z,44.96
2023-05-21T20:49:09.737Z,44.84
2023-05-21T20:51:38.028Z,45.08
2023-05-21T20:54:06.761Z,44.87
2023-05-21T20:56:42.026Z,45.24
2023-05-21T20:59:12.080Z,45.23
2023-05-21T21:01:40.820Z,45.11
2023-05-21T21:04:11.433Z,45.20
2023-05-21T21:06:40.429Z,45.34
2023-05-21T21:09:09.271Z,45.38
2023-05-21T21:11:37.325Z,45.53
2023-05-21T21:14:05.689Z,45.66
2023-05-21T21:16:33.824Z,45.74
2023-05-21T21:19:02.188Z,45.89
2023-05-21T21:21:32.389Z,45.98
2023-05-21T21:24:00.555Z,46.45
2023-05-21T21:26:28.641Z,46.35
2023-05-21T21:28:57.043Z,45.94
2023-05-21T21:31:25.261Z,45.84
2023-05-21T21:33:53.421Z,45.99
2023-05-21T21:36:21.906Z,46.25
2023-05-21T21:38:51.424Z,46.25
2023-05-21T21:41:20.372Z,46.65
2023-05-21T21:43:48.656Z,46.67
2023-05-21T21:46:16.919Z,46.65
2023-05-21T21:48:45.286Z,46.48
2023-05-21T21:51:15.594Z,46.60
2023-05-21T21:53:44.250Z,46.69
2023-05-21T21:56:13.706Z,46.81
2023-05-21T21:58:42.233Z,46.88
2023-05-21T22:01:10.333Z,46.73
2023-05-21T22:03:38.850Z,46.85
2023-05-21T22:06:07.231Z,47.18
2023-05-21T22:08:37.885Z,46.99
2023-05-21T22:11:06.601Z,46.64
2023-05-21T22:13:36.116Z,47.10
2023-05-21T22:16:05.392Z,47.25
2023-05-21T22:18:41.031Z,47.20
2023-05-21T22:21:14.431Z,47.40
2023-05-21T22:23:43.113Z,47.42
2023-05-21T22:26:11.375Z,47.23
2023-05-21T22:28:40.963Z,47.38
2023-05-21T22:31:09.604Z,47.62
2023-05-21T22:33:37.778Z,47.37
2023-05-21T22:36:06.635Z,47.33
2023-05-21T22:38:35.219Z,47.60
2023-05-21T22:41:03.640Z,47.61
2023-05-21T22:43:31.995Z,48.03
2023-05-21T22:46:02.386Z,48.49
2023-05-21T22:48:31.541Z,48.61
2023-05-21T22:51:01.875Z,48.30
2023-05-21T22:53:32.025Z,48.78
2023-05-21T22:56:03.192Z,48.80
2023-05-21T22:58:33.460Z,49.59
2023-05-21T23:01:03.219Z,48.94
2023-05-21T23:03:31.680Z,49.04
2023-05-21T23:06:03.045Z,48.75
2023-05-21T23:08:31.409Z,49.75
2023-05-21T23:10:59.552Z,49.05
2023-05-21T23:13:27.536Z,48.79
2023-05-21T23:15:58.794Z,48.93
2023-05-21T23:18:28.526Z,48.91
2023-05-21T23:20:57.254Z,49.07
2023-05-21T23:23:25.516Z,48.92
2023-05-21T23:25:57.604Z,48.92
2023-05-21T23:28:26.813Z,49.09
2023-05-21T23:30:54.950Z,49.03
2023-05-21T23:33:23.312Z,49.14
2023-05-21T23:35:52.942Z,49.09
2023-05-21T23:38:21.503Z,49.49
2023-05-21T23:40:49.716Z,49.23
2023-05-21T23:43:18.217Z,49.20
2023-05-21T23:45:46.633Z,49.30
2023-05-21T23:48:14.946Z,49.22
2023-05-21T23:50:43.476Z,49.27
2023-05-21T23:53:12.891Z,49.35
2023-05-21T23:55:41.152Z,49.31
2023-05-21T23:58:21.818Z,49.29
